createdAt,value
2017-08-22T00:00:28.744Z,0
2017-08-22T00:01:28.403Z,0
2017-08-22T00:02:28.405Z,0
2017-08-22T00:03:28.712Z,0
2017-08-22T00:04:28.363Z,0
2017-08-22T00:05:28.650Z,0
2017-08-22T00:06:28.335Z,0
2017-08-22T00:07:27.711Z,0
2017-08-22T00:08:28.298Z,0
2017-08-22T00:09:28.299Z,0
2017-08-22T00:10:28.570Z,0
2017-08-22T00:11:28.370Z,0
2017-08-22T00:12:28.551Z,0
2017-08-22T00:13:27.921Z,0
2017-08-22T00:14:28.511Z,0
2017-08-22T00:15:28.182Z,0
2017-08-22T00:16:28.469Z,0
2017-08-22T00:17:28.473Z,0
2017-08-22T00:18:28.440Z,0
2017-08-22T00:19:28.408Z,0
2017-08-22T00:20:27.940Z,0
2017-08-22T00:21:28.379Z,0
2017-08-22T00:22:28.360Z,0
2017-08-22T00:23:27.740Z,0
2017-08-22T00:24:27.731Z,0
2017-08-22T00:25:27.730Z,0
2017-08-22T00:26:27.379Z,0
2017-08-22T00:27:27.996Z,0
2017-08-22T00:28:28.281Z,0
2017-08-22T00:29:27.748Z,0
2017-08-22T00:30:27.631Z,0
2017-08-22T00:31:27.710Z,0
2017-08-22T00:32:28.200Z,0
2017-08-22T00:33:27.651Z,0
2017-08-22T00:34:27.588Z,0
2017-08-22T00:35:28.150Z,0
2017-08-22T00:36:27.831Z,0
2017-08-22T00:37:27.511Z,0
2017-08-22T00:38:27.473Z,0
2017-08-22T00:39:27.777Z,0
2017-08-22T00:40:28.073Z,0
2017-08-22T00:41:27.749Z,0
2017-08-22T00:42:26.790Z,0
2017-08-22T00:43:27.712Z,0
2017-08-22T00:44:27.749Z,0
2017-08-22T00:45:27.714Z,0
2017-08-22T00:46:27.427Z,0
2017-08-22T00:47:27.655Z,0
2017-08-22T00:48:27.634Z,0
2017-08-22T00:49:27.691Z,0
2017-08-22T00:50:27.588Z,0
2017-08-22T00:51:27.876Z,0
2017-08-22T00:52:27.872Z,0
2017-08-22T00:53:26.930Z,0
2017-08-22T00:54:27.831Z,0
2017-08-22T00:55:27.486Z,0
2017-08-22T00:56:27.813Z,0
2017-08-22T00:57:27.499Z,0
2017-08-22T00:58:27.132Z,0
2017-08-22T00:59:27.748Z,0
2017-08-22T01:00:27.730Z,0
2017-08-22T01:01:27.706Z,0
2017-08-22T01:02:27.096Z,0
2017-08-22T01:03:27.681Z,0
2017-08-22T01:04:27.412Z,0
2017-08-22T01:05:27.015Z,0
2017-08-22T01:06:27.624Z,0
2017-08-22T01:07:27.002Z,0
2017-08-22T01:08:27.588Z,0
2017-08-22T01:09:26.976Z,0
2017-08-22T01:10:26.942Z,0
2017-08-22T01:11:27.222Z,0
2017-08-22T01:12:26.619Z,0
2017-08-22T01:13:27.212Z,0
2017-08-22T01:14:27.099Z,0
2017-08-22T01:15:26.561Z,0
2017-08-22T01:16:26.830Z,0
2017-08-22T01:17:26.521Z,0
2017-08-22T01:18:26.790Z,0
2017-08-22T01:19:26.803Z,0
2017-08-22T01:20:26.473Z,0
2017-08-22T01:21:26.764Z,0
2017-08-22T01:22:26.729Z,0
2017-08-22T01:23:27.352Z,0
2017-08-22T01:24:26.720Z,0
2017-08-22T01:25:26.701Z,0
2017-08-22T01:26:26.364Z,0
2017-08-22T01:27:26.352Z,0
2017-08-22T01:28:26.351Z,0
2017-08-22T01:29:26.607Z,0
2017-08-22T01:30:26.591Z,0
2017-08-22T01:31:26.606Z,0
2017-08-22T01:32:26.867Z,0
2017-08-22T01:33:26.578Z,0
2017-08-22T01:34:26.570Z,0
2017-08-22T01:35:26.509Z,0
2017-08-22T01:36:27.221Z,0
2017-08-22T01:37:26.870Z,0
2017-08-22T01:38:26.475Z,0
2017-08-22T01:39:26.561Z,0
2017-08-22T01:40:26.515Z,0
2017-08-22T01:41:26.730Z,0
2017-08-22T01:42:26.701Z,0
2017-08-22T01:43:26.780Z,0
2017-08-22T01:44:26.731Z,0
2017-08-22T01:45:26.353Z,0
2017-08-22T01:46:26.953Z,0
2017-08-22T01:47:26.922Z,0
2017-08-22T01:48:26.600Z,0
2017-08-22T01:49:26.587Z,0
2017-08-22T01:50:26.861Z,0
2017-08-22T01:51:26.572Z,0
2017-08-22T01:52:26.531Z,0
2017-08-22T01:53:26.822Z,0
2017-08-22T01:54:26.502Z,0
2017-08-22T01:55:26.481Z,0
2017-08-22T01:56:26.838Z,0
2017-08-22T01:57:26.470Z,0
2017-08-22T01:58:26.452Z,0
2017-08-22T01:59:26.489Z,0
2017-08-22T02:00:26.425Z,0
2017-08-22T02:01:26.416Z,0
2017-08-22T02:02:26.091Z,0
2017-08-22T02:03:26.100Z,0
2017-08-22T02:04:26.637Z,0
2017-08-22T02:05:26.730Z,0
2017-08-22T02:06:26.458Z,0
2017-08-22T02:07:26.352Z,0
2017-08-22T02:08:26.618Z,0
2017-08-22T02:09:26.577Z,0
2017-08-22T02:10:26.551Z,0
2017-08-22T02:11:26.521Z,0
2017-08-22T02:12:25.932Z,0
2017-08-22T02:13:25.874Z,0
2017-08-22T02:14:26.562Z,0
2017-08-22T02:15:26.233Z,0
2017-08-22T02:16:25.852Z,0
2017-08-22T02:17:25.822Z,0
2017-08-22T02:18:26.394Z,0
2017-08-22T02:19:26.420Z,0
2017-08-22T02:20:26.394Z,0
2017-08-22T02:21:26.352Z,0
2017-08-22T02:22:26.399Z,0
2017-08-22T02:23:26.012Z,0
2017-08-22T02:24:25.690Z,0
2017-08-22T02:25:26.298Z,0
2017-08-22T02:26:25.660Z,0
2017-08-22T02:27:25.945Z,0
2017-08-22T02:28:25.972Z,0
2017-08-22T02:29:26.262Z,0
2017-08-22T02:30:25.620Z,0
2017-08-22T02:31:25.571Z,0
2017-08-22T02:32:26.193Z,0
2017-08-22T02:33:25.853Z,0
2017-08-22T02:34:25.822Z,0
2017-08-22T02:35:26.170Z,0
2017-08-22T02:36:25.185Z,0
2017-08-22T02:37:25.598Z,0
2017-08-22T02:38:25.783Z,0
2017-08-22T02:39:26.032Z,0
2017-08-22T02:40:25.767Z,0
2017-08-22T02:41:26.029Z,0
2017-08-22T02:42:25.995Z,0
2017-08-22T02:43:25.469Z,0
2017-08-22T02:44:25.650Z,0
2017-08-22T02:45:25.951Z,0
2017-08-22T02:46:25.939Z,0
2017-08-22T02:47:25.622Z,0
2017-08-22T02:48:25.581Z,0
2017-08-22T02:49:25.343Z,0
2017-08-22T02:50:25.562Z,0
2017-08-22T02:51:25.226Z,0
2017-08-22T02:52:25.921Z,0
2017-08-22T02:53:25.819Z,0
2017-08-22T02:54:25.474Z,0
2017-08-22T02:55:25.222Z,0
2017-08-22T02:56:25.424Z,0
2017-08-22T02:57:25.413Z,0
2017-08-22T02:58:25.411Z,0
2017-08-22T02:59:25.394Z,0
2017-08-22T03:00:25.353Z,0
2017-08-22T03:01:25.705Z,0
2017-08-22T03:02:25.370Z,0
2017-08-22T03:03:25.348Z,0
2017-08-22T03:04:25.307Z,0
2017-08-22T03:05:25.275Z,0
2017-08-22T03:06:25.292Z,0
2017-08-22T03:07:25.245Z,0
2017-08-22T03:08:24.919Z,0
2017-08-22T03:09:24.596Z,0
2017-08-22T03:10:25.221Z,0
2017-08-22T03:11:24.282Z,0
2017-08-22T03:12:24.879Z,0
2017-08-22T03:13:25.443Z,0
2017-08-22T03:14:25.128Z,0
2017-08-22T03:15:25.097Z,0
2017-08-22T03:16:25.094Z,0
2017-08-22T03:17:24.810Z,0
2017-08-22T03:18:25.072Z,0
2017-08-22T03:19:25.345Z,0
2017-08-22T03:20:24.424Z,0
2017-08-22T03:21:24.720Z,0
2017-08-22T03:22:25.035Z,0
2017-08-22T03:23:24.371Z,0
2017-08-22T03:24:24.980Z,0
2017-08-22T03:25:25.276Z,0
2017-08-22T03:26:25.248Z,0
2017-08-22T03:27:24.589Z,0
2017-08-22T03:28:24.573Z,0
2017-08-22T03:29:24.886Z,0
2017-08-22T03:30:25.204Z,0
2017-08-22T03:31:24.839Z,0
2017-08-22T03:32:24.822Z,0
2017-08-22T03:33:24.203Z,0
2017-08-22T03:34:24.481Z,0
2017-08-22T03:35:24.482Z,0
2017-08-22T03:36:24.145Z,0
2017-08-22T03:37:24.423Z,0
2017-08-22T03:38:24.228Z,0
2017-08-22T03:39:25.023Z,0
2017-08-22T03:40:24.390Z,0
2017-08-22T03:41:24.673Z,0
2017-08-22T03:42:24.647Z,0
2017-08-22T03:43:24.626Z,0
2017-08-22T03:44:24.616Z,0
2017-08-22T03:45:24.908Z,0
2017-08-22T03:46:24.898Z,0
2017-08-22T03:47:24.564Z,0
2017-08-22T03:48:24.536Z,0
2017-08-22T03:49:24.211Z,0
2017-08-22T03:50:24.291Z,0
2017-08-22T03:51:24.490Z,0
2017-08-22T03:52:24.464Z,0
2017-08-22T03:53:24.203Z,0
2017-08-22T03:54:24.148Z,0
2017-08-22T03:55:24.113Z,0
2017-08-22T03:56:24.401Z,0
2017-08-22T03:57:24.128Z,0
2017-08-22T03:58:24.365Z,0
2017-08-22T03:59:24.373Z,0
2017-08-22T04:00:24.319Z,0
2017-08-22T04:01:24.631Z,0
2017-08-22T04:02:24.284Z,0
2017-08-22T04:03:24.630Z,0
2017-08-22T04:04:24.293Z,0
2017-08-22T04:05:23.958Z,0
2017-08-22T04:06:24.242Z,0
2017-08-22T04:07:23.924Z,0
2017-08-22T04:08:24.320Z,0
2017-08-22T04:09:24.502Z,0
2017-08-22T04:10:23.839Z,0
2017-08-22T04:11:24.221Z,0
2017-08-22T04:12:23.933Z,0
2017-08-22T04:13:24.221Z,0
2017-08-22T04:14:24.123Z,0
2017-08-22T04:15:24.139Z,0
2017-08-22T04:16:24.162Z,0
2017-08-22T04:17:24.025Z,0
2017-08-22T04:18:23.762Z,0
2017-08-22T04:19:23.705Z,0
2017-08-22T04:20:24.303Z,0
2017-08-22T04:21:24.304Z,0
2017-08-22T04:22:23.942Z,0
2017-08-22T04:23:24.259Z,0
2017-08-22T04:24:24.219Z,0
2017-08-22T04:25:23.584Z,0
2017-08-22T04:26:24.188Z,0
2017-08-22T04:27:24.157Z,0
2017-08-22T04:28:23.548Z,0
2017-08-22T04:29:24.150Z,0
2017-08-22T04:30:23.500Z,0
2017-08-22T04:31:24.118Z,0
2017-08-22T04:32:23.814Z,0
2017-08-22T04:33:23.484Z,0
2017-08-22T04:34:24.073Z,0
2017-08-22T04:35:24.035Z,0
2017-08-22T04:36:24.022Z,0
2017-08-22T04:37:24.020Z,0
2017-08-22T04:38:23.707Z,0
2017-08-22T04:39:24.001Z,0
2017-08-22T04:40:23.703Z,0
2017-08-22T04:41:23.620Z,0
2017-08-22T04:42:23.602Z,0
2017-08-22T04:43:23.656Z,0
2017-08-22T04:44:23.563Z,0
2017-08-22T04:45:23.853Z,5
2017-08-22T04:46:23.846Z,5
2017-08-22T04:47:23.587Z,5
2017-08-22T04:48:23.588Z,5
2017-08-22T04:49:23.172Z,5
2017-08-22T04:50:23.519Z,5
2017-08-22T04:51:23.452Z,5
2017-08-22T04:52:23.482Z,5
2017-08-22T04:53:23.430Z,5
2017-08-22T04:54:23.425Z,5
2017-08-22T04:55:23.684Z,5
2017-08-22T04:56:23.483Z,5
2017-08-22T04:57:23.650Z,10
2017-08-22T04:58:23.629Z,10
2017-08-22T04:59:23.620Z,10
2017-08-22T05:00:23.281Z,10
2017-08-22T05:01:23.280Z,10
2017-08-22T05:02:23.568Z,10
2017-08-22T05:03:22.940Z,10
2017-08-22T05:04:22.922Z,10
2017-08-22T05:05:23.503Z,15
2017-08-22T05:06:22.872Z,15
2017-08-22T05:07:23.472Z,15
2017-08-22T05:08:23.442Z,15
2017-08-22T05:09:22.827Z,15
2017-08-22T05:10:23.113Z,15
2017-08-22T05:11:23.101Z,15
2017-08-22T05:12:23.090Z,15
2017-08-22T05:13:22.754Z,20
2017-08-22T05:14:23.062Z,20
2017-08-22T05:15:23.143Z,20
2017-08-22T05:16:22.755Z,20
2017-08-22T05:17:22.666Z,20
2017-08-22T05:18:22.941Z,20
2017-08-22T05:19:22.971Z,20
2017-08-22T05:20:22.944Z,20
2017-08-22T05:21:22.921Z,20
2017-08-22T05:22:22.891Z,20
2017-08-22T05:23:23.224Z,25
2017-08-22T05:24:22.985Z,25
2017-08-22T05:25:22.827Z,25
2017-08-22T05:26:22.928Z,25
2017-08-22T05:27:22.781Z,25
2017-08-22T05:28:23.185Z,25
2017-08-22T05:29:22.501Z,25
2017-08-22T05:30:22.781Z,20
2017-08-22T05:31:22.462Z,20
2017-08-22T05:32:22.411Z,25
2017-08-22T05:33:23.231Z,25
2017-08-22T05:34:22.672Z,25
2017-08-22T05:35:22.981Z,25
2017-08-22T05:36:23.088Z,25
2017-08-22T05:37:22.629Z,25
2017-08-22T05:38:22.711Z,25
2017-08-22T05:39:22.897Z,25
2017-08-22T05:40:22.592Z,25
2017-08-22T05:41:22.860Z,25
2017-08-22T05:42:22.222Z,25
2017-08-22T05:43:22.956Z,25
2017-08-22T05:44:22.200Z,25
2017-08-22T05:45:22.480Z,25
2017-08-22T05:46:22.773Z,30
2017-08-22T05:47:21.862Z,30
2017-08-22T05:48:22.732Z,30
2017-08-22T05:49:22.411Z,30
2017-08-22T05:50:21.775Z,30
2017-08-22T05:51:22.156Z,35
2017-08-22T05:52:22.370Z,35
2017-08-22T05:53:22.119Z,35
2017-08-22T05:54:22.020Z,35
2017-08-22T05:55:22.450Z,35
2017-08-22T05:56:22.022Z,35
2017-08-22T05:57:22.602Z,35
2017-08-22T05:58:22.698Z,35
2017-08-22T05:59:21.931Z,35
2017-08-22T06:00:22.530Z,35
2017-08-22T06:01:22.461Z,35
2017-08-22T06:02:21.870Z,35
2017-08-22T06:03:22.150Z,40
2017-08-22T06:04:22.232Z,40
2017-08-22T06:05:21.810Z,40
2017-08-22T06:06:22.431Z,40
2017-08-22T06:07:22.480Z,45
2017-08-22T06:08:22.074Z,45
2017-08-22T06:09:22.458Z,45
2017-08-22T06:10:21.771Z,50
2017-08-22T06:11:22.011Z,50
2017-08-22T06:12:22.060Z,55
2017-08-22T06:13:22.390Z,65
2017-08-22T06:14:21.681Z,70
2017-08-22T06:15:21.641Z,70
2017-08-22T06:16:21.685Z,70
2017-08-22T06:17:22.011Z,75
2017-08-22T06:18:21.903Z,75
2017-08-22T06:19:21.588Z,75
2017-08-22T06:20:21.880Z,75
2017-08-22T06:21:21.554Z,80
2017-08-22T06:22:21.818Z,80
2017-08-22T06:23:21.850Z,80
2017-08-22T06:24:21.802Z,80
2017-08-22T06:25:21.850Z,80
2017-08-22T06:26:21.782Z,80
2017-08-22T06:27:21.428Z,80
2017-08-22T06:28:21.423Z,85
2017-08-22T06:29:21.721Z,90
2017-08-22T06:30:21.721Z,95
2017-08-22T06:31:21.669Z,105
2017-08-22T06:32:21.672Z,110
2017-08-22T06:33:21.954Z,115
2017-08-22T06:34:21.634Z,125
2017-08-22T06:35:21.660Z,135
2017-08-22T06:36:21.593Z,145
2017-08-22T06:37:21.589Z,150
2017-08-22T06:38:21.580Z,155
2017-08-22T06:39:21.884Z,165
2017-08-22T06:40:21.531Z,165
2017-08-22T06:41:21.712Z,170
2017-08-22T06:42:21.861Z,170
2017-08-22T06:43:21.827Z,175
2017-08-22T06:44:21.770Z,175
2017-08-22T06:45:21.763Z,180
2017-08-22T06:46:21.811Z,180
2017-08-22T06:47:21.767Z,180
2017-08-22T06:48:21.410Z,185
2017-08-22T06:49:21.826Z,190
2017-08-22T06:50:21.372Z,190
2017-08-22T06:51:21.351Z,195
2017-08-22T06:52:21.350Z,195
2017-08-22T06:53:21.460Z,200
2017-08-22T06:54:21.666Z,200
2017-08-22T06:55:21.600Z,190
2017-08-22T06:56:21.279Z,185
2017-08-22T06:57:21.631Z,180
2017-08-22T06:58:21.541Z,180
2017-08-22T06:59:21.562Z,175
2017-08-22T07:00:21.540Z,170
2017-08-22T07:01:21.209Z,170
2017-08-22T07:02:21.198Z,165
2017-08-22T07:03:21.190Z,165
2017-08-22T07:04:21.470Z,165
2017-08-22T07:05:21.178Z,175
2017-08-22T07:06:21.137Z,170
2017-08-22T07:07:21.129Z,175
2017-08-22T07:08:20.804Z,195
2017-08-22T07:09:21.072Z,215
2017-08-22T07:10:21.071Z,200
2017-08-22T07:11:20.742Z,220
2017-08-22T07:12:21.050Z,195
2017-08-22T07:13:21.028Z,220
2017-08-22T07:14:21.022Z,215
2017-08-22T07:15:20.696Z,200
2017-08-22T07:16:20.988Z,205
2017-08-22T07:17:20.742Z,255
2017-08-22T07:18:21.288Z,265
2017-08-22T07:19:20.642Z,225
2017-08-22T07:20:21.233Z,300
2017-08-22T07:21:21.219Z,330
2017-08-22T07:22:21.190Z,250
2017-08-22T07:23:21.221Z,235
2017-08-22T07:24:21.168Z,240
2017-08-22T07:25:21.193Z,230
2017-08-22T07:26:21.169Z,260
2017-08-22T07:27:20.899Z,220
2017-08-22T07:28:20.493Z,225
2017-08-22T07:29:21.132Z,205
2017-08-22T07:30:21.080Z,200
2017-08-22T07:31:21.070Z,195
2017-08-22T07:32:20.739Z,205
2017-08-22T07:33:20.403Z,215
2017-08-22T07:34:20.509Z,210
2017-08-22T07:35:20.720Z,210
2017-08-22T07:36:20.690Z,205
2017-08-22T07:37:21.000Z,210
2017-08-22T07:38:20.367Z,210
2017-08-22T07:39:20.662Z,225
2017-08-22T07:40:20.629Z,240
2017-08-22T07:41:20.328Z,245
2017-08-22T07:42:20.937Z,255
2017-08-22T07:43:20.924Z,265
2017-08-22T07:44:20.619Z,260
2017-08-22T07:45:20.352Z,255
2017-08-22T07:46:19.981Z,250
2017-08-22T07:47:20.544Z,255
2017-08-22T07:48:20.530Z,235
2017-08-22T07:49:20.509Z,210
2017-08-22T07:50:20.232Z,200
2017-08-22T07:51:20.497Z,190
2017-08-22T07:52:20.462Z,185
2017-08-22T07:53:20.194Z,195
2017-08-22T07:54:20.713Z,195
2017-08-22T07:55:20.474Z,215
2017-08-22T07:56:20.430Z,240
2017-08-22T07:57:20.622Z,445
2017-08-22T07:58:20.418Z,290
2017-08-22T07:59:20.396Z,330
2017-08-22T08:00:20.493Z,300
2017-08-22T08:01:20.910Z,345
2017-08-22T08:02:20.373Z,315
2017-08-22T08:03:20.356Z,320
2017-08-22T08:04:19.804Z,335
2017-08-22T08:05:20.620Z,330
2017-08-22T08:06:20.619Z,255
2017-08-22T08:07:20.328Z,255
2017-08-22T08:08:20.330Z,280
2017-08-22T08:09:20.646Z,395
2017-08-22T08:10:20.645Z,680
2017-08-22T08:11:20.604Z,460
2017-08-22T08:12:20.238Z,380
2017-08-22T08:13:20.211Z,635
2017-08-22T08:14:20.568Z,380
2017-08-22T08:15:20.519Z,785
2017-08-22T08:16:20.532Z,380
2017-08-22T08:17:20.508Z,450
2017-08-22T08:18:19.835Z,400
2017-08-22T08:19:20.587Z,485
2017-08-22T08:20:20.137Z,800
2017-08-22T08:21:20.138Z,560
2017-08-22T08:22:19.212Z,415
2017-08-22T08:23:20.434Z,450
2017-08-22T08:24:20.419Z,365
2017-08-22T08:25:20.085Z,365
2017-08-22T08:26:19.770Z,420
2017-08-22T08:27:19.742Z,810
2017-08-22T08:28:19.724Z,910
2017-08-22T08:29:20.040Z,960
2017-08-22T08:30:20.083Z,985
2017-08-22T08:31:20.032Z,980
2017-08-22T08:32:20.322Z,930
2017-08-22T08:33:20.312Z,905
2017-08-22T08:34:20.317Z,895
2017-08-22T08:35:20.110Z,835
2017-08-22T08:36:20.024Z,765
2017-08-22T08:37:19.733Z,795
2017-08-22T08:38:19.978Z,900
2017-08-22T08:39:19.406Z,945
2017-08-22T08:40:19.648Z,940
2017-08-22T08:41:19.631Z,960
2017-08-22T08:42:20.242Z,945
2017-08-22T08:43:20.449Z,940
2017-08-22T08:44:19.619Z,945
2017-08-22T08:45:19.915Z,930
2017-08-22T08:46:19.904Z,900
2017-08-22T08:47:19.897Z,905
2017-08-22T08:48:19.906Z,920
2017-08-22T08:49:19.900Z,935
2017-08-22T08:50:19.899Z,940
2017-08-22T08:51:19.573Z,955
2017-08-22T08:52:19.910Z,930
2017-08-22T08:53:19.786Z,905
2017-08-22T08:54:19.918Z,900
2017-08-22T08:55:19.866Z,950
2017-08-22T08:56:20.221Z,960
2017-08-22T08:57:20.204Z,920
2017-08-22T08:58:20.199Z,890
2017-08-22T08:59:20.197Z,905
2017-08-22T09:00:19.580Z,895
2017-08-22T09:01:19.525Z,885
2017-08-22T09:02:19.525Z,860
2017-08-22T09:03:20.122Z,900
2017-08-22T09:04:20.193Z,975
2017-08-22T09:05:19.824Z,995
2017-08-22T09:06:19.840Z,1000
2017-08-22T09:07:19.821Z,985
2017-08-22T09:08:19.809Z,915
2017-08-22T09:09:19.833Z,915
2017-08-22T09:10:20.098Z,955
2017-08-22T09:11:19.921Z,1010
2017-08-22T09:12:20.170Z,1030
2017-08-22T09:13:20.108Z,1005
2017-08-22T09:14:19.490Z,980
2017-08-22T09:15:19.180Z,955
2017-08-22T09:16:19.499Z,955
2017-08-22T09:17:20.084Z,960
2017-08-22T09:18:20.090Z,965
2017-08-22T09:19:20.158Z,995
2017-08-22T09:20:19.474Z,980
2017-08-22T09:21:20.107Z,910
2017-08-22T09:22:19.813Z,925
2017-08-22T09:23:20.084Z,955
2017-08-22T09:24:20.175Z,930
2017-08-22T09:25:19.793Z,945
2017-08-22T09:26:19.832Z,955
2017-08-22T09:27:20.305Z,930
2017-08-22T09:28:19.133Z,930
2017-08-22T09:29:20.287Z,935
2017-08-22T09:30:19.447Z,940
2017-08-22T09:31:19.758Z,935
2017-08-22T09:32:19.741Z,915
2017-08-22T09:33:19.733Z,905
2017-08-22T09:34:19.728Z,900
2017-08-22T09:35:20.045Z,875
2017-08-22T09:36:20.051Z,890
2017-08-22T09:37:20.048Z,935
2017-08-22T09:38:20.024Z,945
2017-08-22T09:39:19.729Z,890
2017-08-22T09:40:20.021Z,875
2017-08-22T09:41:19.418Z,885
2017-08-22T09:42:19.742Z,870
2017-08-22T09:43:19.418Z,850
2017-08-22T09:44:20.059Z,850
2017-08-22T09:45:19.410Z,875
2017-08-22T09:46:19.411Z,850
2017-08-22T09:47:19.411Z,835
2017-08-22T09:48:20.004Z,865
2017-08-22T09:49:19.409Z,865
2017-08-22T09:50:19.692Z,855
2017-08-22T09:51:19.789Z,870
2017-08-22T09:52:19.684Z,880
2017-08-22T09:53:19.367Z,900
2017-08-22T09:54:20.011Z,895
2017-08-22T09:55:19.391Z,855
2017-08-22T09:56:19.672Z,890
2017-08-22T09:57:19.361Z,870
2017-08-22T09:58:19.732Z,870
2017-08-22T09:59:19.648Z,885
2017-08-22T10:00:20.023Z,840
2017-08-22T10:01:19.663Z,835
2017-08-22T10:02:20.052Z,845
2017-08-22T10:03:19.649Z,830
2017-08-22T10:04:19.652Z,810
2017-08-22T10:05:19.942Z,790
2017-08-22T10:06:19.949Z,790
2017-08-22T10:07:20.181Z,800
2017-08-22T10:08:19.995Z,780
2017-08-22T10:09:19.954Z,750
2017-08-22T10:10:19.937Z,745
2017-08-22T10:11:19.353Z,745
2017-08-22T10:12:19.648Z,740
2017-08-22T10:13:19.590Z,715
2017-08-22T10:14:19.308Z,585
2017-08-22T10:15:19.588Z,465
2017-08-22T10:16:19.302Z,465
2017-08-22T10:17:19.273Z,450
2017-08-22T10:18:19.581Z,455
2017-08-22T10:19:19.287Z,450
2017-08-22T10:20:19.879Z,450
2017-08-22T10:21:19.911Z,450
2017-08-22T10:22:19.266Z,445
2017-08-22T10:23:19.863Z,445
2017-08-22T10:24:19.663Z,445
2017-08-22T10:25:19.545Z,440
2017-08-22T10:26:19.570Z,440
2017-08-22T10:27:19.242Z,435
2017-08-22T10:28:19.602Z,430
2017-08-22T10:29:19.941Z,420
2017-08-22T10:30:19.851Z,430
2017-08-22T10:31:19.311Z,415
2017-08-22T10:32:19.818Z,420
2017-08-22T10:33:19.562Z,410
2017-08-22T10:34:19.191Z,355
2017-08-22T10:35:19.833Z,345
2017-08-22T10:36:19.782Z,330
2017-08-22T10:37:19.783Z,305
2017-08-22T10:38:19.767Z,290
2017-08-22T10:39:19.773Z,280
2017-08-22T10:40:19.468Z,270
2017-08-22T10:41:19.763Z,260
2017-08-22T10:42:19.469Z,245
2017-08-22T10:43:19.454Z,235
2017-08-22T10:44:19.451Z,225
2017-08-22T10:45:19.733Z,220
2017-08-22T10:46:19.125Z,210
2017-08-22T10:47:19.401Z,200
2017-08-22T10:48:19.388Z,195
2017-08-22T10:49:19.420Z,195
2017-08-22T10:50:19.413Z,195
2017-08-22T10:51:19.375Z,195
2017-08-22T10:52:19.359Z,190
2017-08-22T10:53:19.389Z,195
2017-08-22T10:54:19.671Z,200
2017-08-22T10:55:19.641Z,210
2017-08-22T10:56:19.343Z,225
2017-08-22T10:57:19.338Z,255
2017-08-22T10:58:19.338Z,210
2017-08-22T10:59:19.332Z,195
2017-08-22T11:00:19.622Z,190
2017-08-22T11:01:19.594Z,185
2017-08-22T11:02:19.306Z,180
2017-08-22T11:03:19.303Z,170
2017-08-22T11:04:19.301Z,170
2017-08-22T11:05:19.282Z,170
2017-08-22T11:06:19.665Z,170
2017-08-22T11:07:18.626Z,175
2017-08-22T11:08:19.562Z,180
2017-08-22T11:09:19.225Z,235
2017-08-22T11:10:19.612Z,225
2017-08-22T11:11:19.212Z,200
2017-08-22T11:12:19.298Z,205
2017-08-22T11:13:19.227Z,215
2017-08-22T11:14:19.205Z,225
2017-08-22T11:15:19.261Z,245
2017-08-22T11:16:19.170Z,255
2017-08-22T11:17:19.172Z,265
2017-08-22T11:18:19.224Z,330
2017-08-22T11:19:19.162Z,345
2017-08-22T11:20:19.496Z,350
2017-08-22T11:21:19.125Z,350
2017-08-22T11:22:19.462Z,345
2017-08-22T11:23:19.190Z,320
2017-08-22T11:24:19.400Z,355
2017-08-22T11:25:19.410Z,370
2017-08-22T11:26:18.771Z,370
2017-08-22T11:27:19.394Z,375
2017-08-22T11:28:19.373Z,370
2017-08-22T11:29:19.373Z,365
2017-08-22T11:30:19.373Z,365
2017-08-22T11:31:19.341Z,310
2017-08-22T11:32:19.349Z,300
2017-08-22T11:33:19.312Z,345
2017-08-22T11:34:19.363Z,350
2017-08-22T11:35:19.331Z,290
2017-08-22T11:36:18.683Z,270
2017-08-22T11:37:19.309Z,265
2017-08-22T11:38:19.313Z,260
2017-08-22T11:39:19.013Z,255
2017-08-22T11:40:19.284Z,250
2017-08-22T11:41:19.283Z,255
2017-08-22T11:42:18.964Z,255
2017-08-22T11:43:18.638Z,270
2017-08-22T11:44:19.271Z,325
2017-08-22T11:45:19.231Z,320
2017-08-22T11:46:18.615Z,325
2017-08-22T11:47:18.931Z,325
2017-08-22T11:48:19.210Z,315
2017-08-22T11:49:18.890Z,310
2017-08-22T11:50:19.296Z,305
2017-08-22T11:51:19.264Z,305
2017-08-22T11:52:19.263Z,310
2017-08-22T11:53:18.958Z,310
2017-08-22T11:54:18.880Z,315
2017-08-22T11:55:18.585Z,320
2017-08-22T11:56:18.834Z,320
2017-08-22T11:57:19.228Z,315
2017-08-22T11:58:18.812Z,300
2017-08-22T11:59:19.136Z,285
2017-08-22T12:00:19.145Z,310
2017-08-22T12:01:18.810Z,330
2017-08-22T12:02:19.137Z,345
2017-08-22T12:03:18.801Z,345
2017-08-22T12:04:18.771Z,340
2017-08-22T12:05:18.772Z,335
2017-08-22T12:06:19.109Z,330
2017-08-22T12:07:19.138Z,325
2017-08-22T12:08:18.733Z,290
2017-08-22T12:09:19.075Z,280
2017-08-22T12:10:19.041Z,245
2017-08-22T12:11:18.962Z,235
2017-08-22T12:12:19.014Z,220
2017-08-22T12:13:19.022Z,205
2017-08-22T12:14:18.283Z,205
2017-08-22T12:15:19.036Z,195
2017-08-22T12:16:18.686Z,195
2017-08-22T12:17:18.671Z,185
2017-08-22T12:18:18.671Z,185
2017-08-22T12:19:18.969Z,210
2017-08-22T12:20:18.972Z,190
2017-08-22T12:21:18.660Z,185
2017-08-22T12:22:18.638Z,185
2017-08-22T12:23:18.661Z,185
2017-08-22T12:24:18.921Z,185
2017-08-22T12:25:18.737Z,185
2017-08-22T12:26:18.881Z,235
2017-08-22T12:27:18.612Z,195
2017-08-22T12:28:18.911Z,180
2017-08-22T12:29:18.882Z,170
2017-08-22T12:30:19.004Z,170
2017-08-22T12:31:18.888Z,175
2017-08-22T12:32:18.777Z,180
2017-08-22T12:33:18.649Z,190
2017-08-22T12:34:18.851Z,195
2017-08-22T12:35:18.536Z,205
2017-08-22T12:36:18.540Z,210
2017-08-22T12:37:18.857Z,255
2017-08-22T12:38:18.829Z,275
2017-08-22T12:39:18.824Z,265
2017-08-22T12:40:18.921Z,275
2017-08-22T12:41:18.801Z,260
2017-08-22T12:42:18.842Z,270
2017-08-22T12:43:18.857Z,265
2017-08-22T12:44:18.754Z,250
2017-08-22T12:45:18.759Z,270
2017-08-22T12:46:18.445Z,280
2017-08-22T12:47:18.812Z,275
2017-08-22T12:48:18.416Z,275
2017-08-22T12:49:18.742Z,285
2017-08-22T12:50:18.119Z,275
2017-08-22T12:51:18.390Z,275
2017-08-22T12:52:18.401Z,285
2017-08-22T12:53:18.669Z,295
2017-08-22T12:54:18.671Z,295
2017-08-22T12:55:18.368Z,285
2017-08-22T12:56:18.512Z,290
2017-08-22T12:57:18.639Z,265
2017-08-22T12:58:17.867Z,260
2017-08-22T12:59:18.055Z,240
2017-08-22T13:00:18.355Z,205
2017-08-22T13:01:18.413Z,205
2017-08-22T13:02:18.002Z,195
2017-08-22T13:03:18.311Z,195
2017-08-22T13:04:18.346Z,185
2017-08-22T13:05:18.320Z,185
2017-08-22T13:06:18.589Z,180
2017-08-22T13:07:18.816Z,175
2017-08-22T13:08:17.650Z,175
2017-08-22T13:09:17.990Z,170
2017-08-22T13:10:18.285Z,170
2017-08-22T13:11:18.300Z,165
2017-08-22T13:12:18.516Z,160
2017-08-22T13:13:18.600Z,160
2017-08-22T13:14:18.300Z,160
2017-08-22T13:15:18.535Z,225
2017-08-22T13:16:17.588Z,160
2017-08-22T13:17:18.197Z,165
2017-08-22T13:18:18.240Z,175
2017-08-22T13:19:18.541Z,190
2017-08-22T13:20:18.198Z,190
2017-08-22T13:21:18.166Z,160
2017-08-22T13:22:18.491Z,225
2017-08-22T13:23:18.220Z,220
2017-08-22T13:24:18.186Z,220
2017-08-22T13:25:18.104Z,225
2017-08-22T13:26:18.102Z,230
2017-08-22T13:27:18.104Z,235
2017-08-22T13:28:17.760Z,240
2017-08-22T13:29:18.152Z,245
2017-08-22T13:30:18.070Z,255
2017-08-22T13:31:18.048Z,260
2017-08-22T13:32:18.333Z,260
2017-08-22T13:33:18.353Z,250
2017-08-22T13:34:18.358Z,250
2017-08-22T13:35:18.062Z,230
2017-08-22T13:36:18.030Z,215
2017-08-22T13:37:18.001Z,240
2017-08-22T13:38:18.298Z,235
2017-08-22T13:39:17.985Z,230
2017-08-22T13:40:18.297Z,235
2017-08-22T13:41:18.271Z,225
2017-08-22T13:42:18.269Z,205
2017-08-22T13:43:17.959Z,195
2017-08-22T13:44:18.237Z,185
2017-08-22T13:45:18.041Z,175
2017-08-22T13:46:18.249Z,200
2017-08-22T13:47:17.949Z,200
2017-08-22T13:48:17.611Z,200
2017-08-22T13:49:18.211Z,200
2017-08-22T13:50:18.206Z,140
2017-08-22T13:51:18.180Z,140
2017-08-22T13:52:17.885Z,135
2017-08-22T13:53:17.876Z,135
2017-08-22T13:54:18.166Z,155
2017-08-22T13:55:17.886Z,170
2017-08-22T13:56:17.512Z,145
2017-08-22T13:57:18.143Z,140
2017-08-22T13:58:17.502Z,140
2017-08-22T13:59:17.859Z,140
2017-08-22T14:00:17.486Z,135
2017-08-22T14:01:17.484Z,135
2017-08-22T14:02:17.787Z,140
2017-08-22T14:03:17.802Z,175
2017-08-22T14:04:18.253Z,130
2017-08-22T14:05:18.151Z,145
2017-08-22T14:06:17.760Z,160
2017-08-22T14:07:18.060Z,180
2017-08-22T14:08:17.130Z,180
2017-08-22T14:09:17.403Z,170